Columbia (COU/KCOU)

Map

Destinations

Information

Location
Columbia, Missouri
Local Time
17:46 / 5:46 pm
GMT Time
23:46 / 11:46 pm
Gates
Unassigned
No FAA reported delays
METAR KCOU 182254Z 21011KT 10SM CLR 04/M08 A3014 RMK AO2 SLP216 T00391078
TAF KCOU 181750Z 1818/1918 22014G21KT P6SM SKC FM190000 21009KT P6SM SKC